LIMP/PMF METAR and TAF weather

Enter ICAO airport designator
Station Type Date Time Source
LIMP METAR 2022/05/25 20:50 UTC NOAA

LIMP 252050Z 26003KT 210V340 CAVOK 21/16 Q1016


Station Type Date Time Source
LIMP Decoded METAR 2022/05/25 20:50 UTC NOAA

Parma, Italy (LIMP) 44-49-17N 010-17-41E
May 25, 2022 - 04:50 PM EDT / 2022.05.25 2050 UTC
Wind: from the W (260 degrees) at 3 MPH (3 KT) (direction variable):0
Visibility: greater than 7 mile(s):0
Temperature: 69 F (21 C)
Dew Point: 60 F (16 C)
Relative Humidity: 73%
Pressure (altimeter): 30.00 in. Hg (1016 hPa)
ob: LIMP 252050Z 26003KT 210V340 CAVOK 21/16 Q1016
cycle: 21

Station Type Date Time Source
LIMP TAF 2022/05/25 18:33 UTC NOAA

TAF
AMD TAF
AMD LIMP 251729Z 2518/2618 VRB05KT 9999 FEW030 SCT040
BECMG 2606/2608 08010KT
TEMPO 2612/2616 4000 TSRA
BECMG 2616/2618 VRB05KT

Example: see airport list